Time;durP1;ratioP1;P1;durP2;ratioP2;P2;SDS_P1;SDS_P2;PMS_P1;PMS_P2;Temp;Humidity;BMP_temperature;BMP_pressure;BME280_temperature;BME280_humidity;BME280_pressure;Samples;Min_cycle;Max_cycle;Signal;HPM_P1;HPM_P2
2022/12/09 00:02:15;;;;;;;7.03;3.90;;;4.40;99.90;;;;;;5098405;28;20648;-73
2022/12/09 00:04:40;;;;;;;7.03;4.10;;;4.40;99.90;;;;;;5098444;28;20511;-73
2022/12/09 00:07:06;;;;;;;7.28;3.97;;;4.50;99.90;;;;;;5102241;28;20080;-74
2022/12/09 00:09:32;;;;;;;6.72;3.67;;;4.50;99.90;;;;;;5083709;28;20169;-73
2022/12/09 00:11:57;;;;;;;5.93;3.97;;;4.50;99.90;;;;;;5097931;28;20059;-73
2022/12/09 00:14:23;;;;;;;6.70;3.83;;;4.50;99.90;;;;;;5098274;28;20024;-74
2022/12/09 00:16:48;;;;;;;8.23;4.40;;;4.50;99.90;;;;;;5097859;28;20024;-74
2022/12/09 00:19:14;;;;;;;5.75;3.50;;;4.50;99.90;;;;;;5098191;28;20020;-74
2022/12/09 00:21:42;;;;;;;5.63;3.72;;;4.40;99.90;;;;;;5097771;28;20027;-74
2022/12/09 00:24:11;;;;;;;6.43;3.72;;;4.40;99.90;;;;;;5097860;28;20031;-74
2022/12/09 00:26:38;;;;;;;4.95;3.55;;;4.40;99.90;;;;;;5097181;28;20023;-73
2022/12/09 00:29:03;;;;;;;7.40;4.03;;;4.40;99.90;;;;;;5098041;28;20031;-73
2022/12/09 00:31:31;;;;;;;6.47;3.80;;;4.40;99.90;;;;;;5079299;28;20020;-73
2022/12/09 00:34:00;;;;;;;7.03;4.35;;;4.40;99.90;;;;;;5079624;28;20566;-73
2022/12/09 00:36:27;;;;;;;6.32;3.97;;;4.40;99.90;;;;;;5097826;28;20020;-73
2022/12/09 00:38:54;;;;;;;6.40;4.30;;;4.40;99.90;;;;;;5079363;28;20023;-74
2022/12/09 00:41:19;;;;;;;6.22;3.60;;;4.40;99.90;;;;;;5097148;28;20024;-74
2022/12/09 00:43:46;;;;;;;6.22;3.97;;;4.40;99.90;;;;;;5097771;28;20077;-73
2022/12/09 00:46:12;;;;;;;5.78;3.60;;;4.40;99.90;;;;;;5097248;28;20101;-73
2022/12/09 00:48:38;;;;;;;6.75;4.10;;;4.50;99.90;;;;;;5097732;28;20024;-73
2022/12/09 00:51:06;;;;;;;6.05;3.58;;;4.40;99.90;;;;;;5079256;28;20028;-73
2022/12/09 00:53:32;;;;;;;6.72;3.80;;;4.40;99.90;;;;;;5097489;28;20504;-73
2022/12/09 00:55:58;;;;;;;6.40;3.50;;;4.40;99.90;;;;;;5097767;28;20094;-73
2022/12/09 00:58:24;;;;;;;5.55;3.40;;;4.50;99.90;;;;;;5076083;28;20530;-73
2022/12/09 01:00:52;;;;;;;5.88;3.92;;;4.50;99.90;;;;;;5075647;28;20032;-73
2022/12/09 01:03:19;;;;;;;4.88;2.80;;;4.50;99.90;;;;;;5077229;28;20123;-73
2022/12/09 01:05:45;;;;;;;5.75;3.35;;;4.40;99.90;;;;;;5076449;28;20074;-74
2022/12/09 01:08:11;;;;;;;4.63;3.10;;;4.40;99.90;;;;;;5078504;28;20490;-74
2022/12/09 01:10:39;;;;;;;5.38;3.10;;;4.40;99.90;;;;;;5075874;28;20033;-74
2022/12/09 01:13:05;;;;;;;5.70;3.53;;;4.40;99.90;;;;;;5076336;28;20435;-74
2022/12/09 01:15:31;;;;;;;4.95;2.47;;;4.40;99.90;;;;;;5076881;28;20025;-74
2022/12/09 01:17:56;;;;;;;5.97;3.35;;;4.40;99.90;;;;;;5076930;28;20093;-74
2022/12/09 01:20:22;;;;;;;5.07;3.30;;;4.40;99.90;;;;;;5076985;28;20033;-74
2022/12/09 01:22:48;;;;;;;5.88;3.33;;;4.40;99.90;;;;;;5076665;28;20807;-74
2022/12/09 01:25:14;;;;;;;4.82;3.38;;;4.40;99.90;;;;;;5077161;28;20024;-74
2022/12/09 01:27:39;;;;;;;4.75;2.60;;;4.40;99.90;;;;;;5076946;28;20146;-74
2022/12/09 01:30:07;;;;;;;4.88;3.08;;;4.40;99.90;;;;;;5077175;28;20052;-73
2022/12/09 01:32:33;;;;;;;4.53;3.20;;;4.40;99.90;;;;;;5076628;28;20558;-73
2022/12/09 01:34:58;;;;;;;3.67;2.35;;;4.40;99.90;;;;;;5075673;28;20029;-73
2022/12/09 01:37:24;;;;;;;5.43;3.00;;;4.30;99.90;;;;;;5079533;28;20036;-74
2022/12/09 01:39:50;;;;;;;5.07;2.78;;;4.40;99.90;;;;;;5079368;28;20060;-73
2022/12/09 01:42:23;;;;;;;4.70;2.83;;;4.40;99.90;;;;;;5079458;28;20020;-73
2022/12/09 01:45:20;;;;;;;4.55;2.70;;;4.40;99.90;;;;;;5080530;28;20082;-74
2022/12/09 01:47:47;;;;;;;4.15;2.50;;;4.40;99.90;;;;;;5068453;28;20025;-74
2022/12/09 01:50:13;;;;;;;3.78;2.72;;;4.40;99.90;;;;;;5079456;28;20031;-74
2022/12/09 01:52:39;;;;;;;4.32;2.80;;;4.40;99.90;;;;;;5080224;28;20035;-74
2022/12/09 01:55:05;;;;;;;5.82;3.03;;;4.30;99.90;;;;;;5079135;28;20115;-74
2022/12/09 01:57:31;;;;;;;5.00;3.33;;;4.30;99.90;;;;;;5080629;28;20035;-74
2022/12/09 01:59:57;;;;;;;5.05;2.90;;;4.30;99.90;;;;;;5061204;28;20048;-74
2022/12/09 02:02:26;;;;;;;4.05;2.75;;;4.30;99.90;;;;;;5060453;28;20103;-74
2022/12/09 02:04:53;;;;;;;4.28;2.60;;;4.20;99.90;;;;;;5059953;28;20029;-74
2022/12/09 02:07:19;;;;;;;4.78;2.83;;;4.20;99.90;;;;;;5059764;28;20077;-74
2022/12/09 02:09:45;;;;;;;4.45;2.90;;;4.20;99.90;;;;;;5058105;28;20033;-74
2022/12/09 02:12:21;;;;;;;5.60;3.70;;;4.20;99.90;;;;;;5058457;28;20021;-74
2022/12/09 02:15:03;;;;;;;4.88;2.95;;;4.20;99.90;;;;;;5055104;28;20036;-74
2022/12/09 02:17:44;;;;;;;3.43;2.40;;;4.20;99.90;;;;;;5057458;28;20036;-74
2022/12/09 02:20:28;;;;;;;3.72;2.47;;;4.20;99.90;;;;;;5059971;28;20028;-73
2022/12/09 02:23:15;;;;;;;4.00;2.70;;;4.20;99.90;;;;;;5058678;28;20477;-73
2022/12/09 02:25:48;;;;;;;4.35;2.63;;;4.20;99.90;;;;;;5058684;28;20466;-73
2022/12/09 02:28:47;;;;;;;4.88;3.05;;;4.20;99.90;;;;;;5075287;28;20485;-73
2022/12/09 02:31:25;;;;;;;4.95;3.28;;;4.20;99.90;;;;;;5059771;28;20021;-73
2022/12/09 02:34:11;;;;;;;5.55;3.40;;;4.10;99.90;;;;;;5058423;28;20485;-73
2022/12/09 02:36:52;;;;;;;4.75;3.50;;;3.90;99.90;;;;;;5075951;28;20025;-73
2022/12/09 02:39:24;;;;;;;4.05;2.92;;;3.80;99.90;;;;;;5057889;28;20047;-73
2022/12/09 02:41:52;;;;;;;4.38;3.00;;;3.80;99.90;;;;;;5058085;28;20029;-73
2022/12/09 02:44:21;;;;;;;4.35;3.25;;;3.90;99.90;;;;;;5091621;28;20489;-74
2022/12/09 02:46:48;;;;;;;5.93;3.95;;;3.90;99.90;;;;;;5056984;28;20025;-74
2022/12/09 02:49:14;;;;;;;5.22;3.40;;;3.90;99.90;;;;;;5057318;28;20055;-74
2022/12/09 02:51:43;;;;;;;4.68;3.78;;;3.80;99.90;;;;;;5059343;28;20033;-74
2022/12/09 02:54:12;;;;;;;5.30;3.80;;;3.70;99.90;;;;;;5058517;28;20029;-74
2022/12/09 02:56:42;;;;;;;5.63;3.50;;;3.70;99.90;;;;;;5058058;28;20572;-74
2022/12/09 02:59:08;;;;;;;4.85;3.50;;;3.70;99.90;;;;;;5068240;28;20060;-74
2022/12/09 03:01:55;;;;;;;5.80;4.32;;;3.80;99.90;;;;;;5078680;28;20034;-74
2022/12/09 03:04:24;;;;;;;5.60;3.63;;;3.80;99.90;;;;;;5079184;28;20532;-73
2022/12/09 03:06:55;;;;;;;4.55;3.17;;;3.80;99.90;;;;;;5111431;28;20028;-74
2022/12/09 03:09:33;;;;;;;4.80;3.30;;;3.80;99.90;;;;;;5078703;28;20024;-73
2022/12/09 03:12:03;;;;;;;4.57;3.05;;;3.80;99.90;;;;;;5078920;28;20020;-74
2022/12/09 03:14:37;;;;;;;4.47;2.97;;;3.80;99.90;;;;;;5077547;28;20056;-74
2022/12/09 03:17:12;;;;;;;;;;;3.80;99.90;;;;;;5079156;28;20032;-73
2022/12/09 03:19:47;;;;;;;4.13;2.67;;;3.80;99.90;;;;;;5077467;28;19966;-73
2022/12/09 03:22:17;;;;;;;4.82;2.45;;;3.70;99.90;;;;;;5078884;28;20025;-73
2022/12/09 03:24:52;;;;;;;6.10;3.20;;;3.70;99.90;;;;;;5078768;28;20028;-74
2022/12/09 03:27:27;;;;;;;4.38;2.60;;;3.70;99.90;;;;;;5077326;28;20047;-74
2022/12/09 03:29:54;;;;;;;4.75;3.30;;;3.60;99.90;;;;;;5078626;28;20027;-75
2022/12/09 03:32:23;;;;;;;4.38;2.75;;;3.70;99.90;;;;;;5077439;28;20112;-74
2022/12/09 03:34:52;;;;;;;3.60;2.38;;;3.60;99.90;;;;;;5078451;28;20408;-74
2022/12/09 03:37:19;;;;;;;5.20;3.30;;;3.70;99.90;;;;;;5078193;28;20031;-74
2022/12/09 03:39:46;;;;;;;4.28;2.97;;;3.70;99.90;;;;;;5076928;28;20020;-74
2022/12/09 03:42:20;;;;;;;5.28;3.05;;;3.60;99.90;;;;;;5078662;28;20460;-74
2022/12/09 03:44:49;;;;;;;6.15;3.55;;;3.70;99.90;;;;;;5078169;28;20132;-74
2022/12/09 03:47:15;;;;;;;5.07;2.88;;;3.70;99.90;;;;;;5077245;28;20112;-75
2022/12/09 03:49:41;;;;;;;5.68;3.47;;;3.70;99.90;;;;;;5078117;28;20059;-74
2022/12/09 03:52:16;;;;;;;5.20;3.13;;;3.80;99.90;;;;;;5078569;28;20024;-74
2022/12/09 03:54:43;;;;;;;4.72;2.80;;;3.80;99.90;;;;;;5076769;28;20020;-74
2022/12/09 03:57:13;;;;;;;5.03;2.97;;;3.80;99.90;;;;;;5078091;28;20438;-74
2022/12/09 03:59:41;;;;;;;5.75;2.90;;;3.80;99.90;;;;;;5060886;28;20064;-74
2022/12/09 04:02:07;;;;;;;5.10;3.40;;;3.80;99.90;;;;;;5057891;28;20385;-74
2022/12/09 04:04:34;;;;;;;5.20;3.40;;;3.80;99.90;;;;;;5090395;28;20017;-74
2022/12/09 04:07:00;;;;;;;5.60;3.15;;;3.70;99.90;;;;;;5057913;28;20492;-74
2022/12/09 04:09:25;;;;;;;5.55;3.03;;;3.80;99.90;;;;;;5056500;28;20070;-74
2022/12/09 04:11:51;;;;;;;5.38;3.08;;;3.80;99.90;;;;;;5058044;28;20615;-74
2022/12/09 04:14:17;;;;;;;5.38;3.45;;;3.90;99.90;;;;;;5056586;28;20024;-73
2022/12/09 04:16:44;;;;;;;7.85;3.50;;;3.80;99.90;;;;;;5057889;28;20027;-75
2022/12/09 04:19:10;;;;;;;4.22;3.08;;;3.80;99.90;;;;;;5057431;28;20029;-76
2022/12/09 04:21:35;;;;;;;5.95;3.38;;;3.70;99.90;;;;;;5056483;28;20146;-75
2022/12/09 04:24:01;;;;;;;5.70;3.53;;;3.80;99.90;;;;;;5057240;28;20021;-75
2022/12/09 04:26:26;;;;;;;6.18;3.25;;;3.80;99.90;;;;;;5056260;28;20033;-74
2022/12/09 04:28:52;;;;;;;6.18;3.63;;;3.80;99.90;;;;;;5057384;28;20071;-74
2022/12/09 04:31:19;;;;;;;4.65;2.97;;;3.70;99.90;;;;;;5057581;28;20059;-74
2022/12/09 04:33:45;;;;;;;5.75;3.45;;;3.80;99.90;;;;;;5089613;28;20127;-75
2022/12/09 04:36:14;;;;;;;5.32;3.05;;;3.80;99.90;;;;;;5056610;28;20063;-74
2022/12/09 04:38:41;;;;;;;6.15;3.60;;;3.80;99.90;;;;;;5057313;28;20024;-74
2022/12/09 04:41:08;;;;;;;6.20;3.85;;;3.80;99.90;;;;;;5056209;28;20037;-75
2022/12/09 04:43:34;;;;;;;5.13;2.92;;;3.70;99.90;;;;;;5057392;28;20417;-75
2022/12/09 04:46:02;;;;;;;6.10;2.97;;;3.70;99.90;;;;;;5057359;28;20388;-74
2022/12/09 04:48:28;;;;;;;6.38;3.60;;;3.70;99.90;;;;;;5057146;28;20056;-74
2022/12/09 04:50:54;;;;;;;4.53;2.95;;;3.70;99.90;;;;;;5057365;28;20033;-74
2022/12/09 04:53:19;;;;;;;6.43;3.55;;;3.70;99.90;;;;;;5056668;28;20029;-74
2022/12/09 04:55:45;;;;;;;5.00;2.92;;;3.80;99.90;;;;;;5056152;28;20028;-74
2022/12/09 04:58:11;;;;;;;5.68;3.22;;;3.70;99.90;;;;;;5063081;28;20036;-74
2022/12/09 05:00:36;;;;;;;5.43;3.40;;;3.70;99.90;;;;;;5079452;28;20054;-74
2022/12/09 05:03:02;;;;;;;5.18;3.15;;;3.80;99.90;;;;;;5096984;28;20057;-74
2022/12/09 05:05:27;;;;;;;5.57;3.50;;;3.80;99.90;;;;;;5097632;28;20081;-74
2022/12/09 05:07:53;;;;;;;5.72;3.30;;;3.80;99.90;;;;;;5096543;28;20032;-74
2022/12/09 05:10:19;;;;;;;4.70;3.03;;;3.80;99.90;;;;;;5096979;28;20084;-74
2022/12/09 05:12:44;;;;;;;4.45;2.90;;;3.90;99.90;;;;;;5078701;28;20032;-74
2022/12/09 05:15:10;;;;;;;5.32;3.03;;;3.80;99.90;;;;;;5097362;28;20031;-74
2022/12/09 05:17:36;;;;;;;5.30;3.35;;;3.90;99.90;;;;;;5096956;28;20032;-74
2022/12/09 05:20:02;;;;;;;6.57;3.78;;;3.80;99.90;;;;;;5079050;28;20063;-74
2022/12/09 05:22:28;;;;;;;5.50;3.35;;;3.80;99.90;;;;;;5091910;28;20039;-74
2022/12/09 05:24:53;;;;;;;5.55;3.38;;;3.90;99.90;;;;;;5097363;28;20016;-75
2022/12/09 05:27:19;;;;;;;4.72;2.75;;;3.80;99.90;;;;;;5079112;28;20476;-74
2022/12/09 05:29:45;;;;;;;6.00;3.55;;;3.80;99.90;;;;;;5097221;28;20028;-73
2022/12/09 05:32:10;;;;;;;6.40;4.03;;;3.80;99.90;;;;;;5097189;28;20031;-73
2022/12/09 05:34:36;;;;;;;6.07;3.47;;;3.80;99.90;;;;;;5079175;28;20024;-73
2022/12/09 05:37:02;;;;;;;7.03;3.95;;;3.80;99.90;;;;;;5096840;28;20107;-74
2022/12/09 05:39:27;;;;;;;6.65;3.97;;;3.80;99.90;;;;;;5097033;28;20035;-73
2022/12/09 05:41:53;;;;;;;4.95;3.08;;;3.80;99.90;;;;;;5096919;28;20027;-74
2022/12/09 05:44:19;;;;;;;5.95;3.80;;;3.80;99.90;;;;;;5097158;28;20038;-74
2022/12/09 05:46:44;;;;;;;5.38;3.03;;;3.80;99.90;;;;;;5078637;28;20078;-74
2022/12/09 05:49:10;;;;;;;6.18;3.72;;;3.80;99.90;;;;;;5078531;28;20032;-74
2022/12/09 05:51:36;;;;;;;6.43;3.90;;;3.80;99.90;;;;;;5097155;28;20050;-74
2022/12/09 05:54:03;;;;;;;6.57;3.95;;;3.80;99.90;;;;;;5095995;28;20036;-74
2022/12/09 05:56:30;;;;;;;6.03;3.75;;;3.70;99.90;;;;;;5096758;28;20028;-74
2022/12/09 05:58:56;;;;;;;7.40;4.28;;;3.70;99.90;;;;;;5096604;28;20040;-73
2022/12/09 06:01:23;;;;;;;6.97;3.70;;;3.70;99.90;;;;;;5096437;28;20036;-74
2022/12/09 06:03:50;;;;;;;7.32;4.32;;;3.70;99.90;;;;;;5096749;28;20127;-74
2022/12/09 06:06:19;;;;;;;6.00;4.03;;;3.70;99.90;;;;;;5096032;28;20028;-75
2022/12/09 06:08:45;;;;;;;4.85;3.42;;;3.70;99.90;;;;;;5096534;28;20025;-75
2022/12/09 06:11:18;;;;;;;7.47;4.15;;;3.60;99.90;;;;;;5078201;28;20035;-75
2022/12/09 06:13:45;;;;;;;5.75;3.53;;;3.70;99.90;;;;;;5096348;28;20487;-75
2022/12/09 06:16:12;;;;;;;5.28;3.47;;;3.60;99.90;;;;;;5096623;28;20032;-75
2022/12/09 06:18:38;;;;;;;7.20;4.40;;;3.60;99.90;;;;;;5096223;28;20077;-75
2022/12/09 06:21:09;;;;;;;6.38;3.80;;;3.50;99.90;;;;;;5078275;28;20028;-75
2022/12/09 06:23:36;;;;;;;5.85;3.47;;;3.40;99.90;;;;;;5097178;28;20037;-75
2022/12/09 06:26:03;;;;;;;7.55;4.25;;;3.40;99.90;;;;;;5100383;28;20176;-75
2022/12/09 06:28:29;;;;;;;7.60;3.92;;;3.30;99.90;;;;;;5099813;28;20065;-75
2022/12/09 06:30:56;;;;;;;6.53;3.85;;;3.20;99.90;;;;;;5099124;28;20442;-75
2022/12/09 06:33:22;;;;;;;5.82;3.55;;;3.10;99.90;;;;;;5081753;28;20028;-75
2022/12/09 06:35:48;;;;;;;5.40;3.75;;;3.10;99.90;;;;;;5089098;28;20395;-75
2022/12/09 06:38:13;;;;;;;5.35;3.10;;;3.10;99.90;;;;;;5099435;28;20039;-75
2022/12/09 06:40:42;;;;;;;6.68;4.13;;;3.10;99.90;;;;;;5109522;28;20483;-75
2022/12/09 06:43:09;;;;;;;6.28;3.65;;;3.00;99.90;;;;;;5081484;28;20058;-76
2022/12/09 06:45:38;;;;;;;6.53;3.60;;;3.00;99.90;;;;;;5099574;28;20089;-75
2022/12/09 06:48:04;;;;;;;7.28;4.18;;;3.00;99.90;;;;;;5099132;28;20062;-76
2022/12/09 06:50:30;;;;;;;6.57;4.05;;;2.90;99.90;;;;;;5099241;28;20035;-75
2022/12/09 06:52:56;;;;;;;6.50;3.88;;;2.90;99.90;;;;;;5099523;28;20023;-75
2022/12/09 06:55:22;;;;;;;7.18;4.20;;;2.90;99.90;;;;;;5099825;28;20024;-76
2022/12/09 06:57:48;;;;;;;7.00;4.22;;;2.90;99.90;;;;;;5099562;28;20020;-76
2022/12/09 07:00:14;;;;;;;6.80;4.32;;;2.80;99.90;;;;;;5081407;28;20078;-76
2022/12/09 07:02:39;;;;;;;7.22;4.35;;;2.80;99.90;;;;;;5110048;28;20079;-76
2022/12/09 07:05:05;;;;;;;5.20;3.45;;;2.80;99.90;;;;;;5081501;28;20445;-76
2022/12/09 07:07:31;;;;;;;7.60;4.07;;;2.80;99.90;;;;;;5099172;28;20492;-76
2022/12/09 07:10:00;;;;;;;6.82;3.97;;;2.70;99.90;;;;;;5081825;28;20035;-76
2022/12/09 07:12:26;;;;;;;5.90;3.97;;;2.70;99.90;;;;;;5097503;28;20428;-75
2022/12/09 07:14:51;;;;;;;8.23;4.38;;;2.60;99.90;;;;;;5098774;28;20024;-76
2022/12/09 07:17:18;;;;;;;7.72;4.20;;;2.60;99.90;;;;;;5098517;28;20411;-75
2022/12/09 07:19:44;;;;;;;6.38;3.15;;;2.70;99.90;;;;;;5099373;28;20486;-75
2022/12/09 07:22:11;;;;;;;5.60;3.40;;;2.70;99.90;;;;;;5098729;28;20079;-76
2022/12/09 07:24:37;;;;;;;6.82;4.30;;;2.70;99.90;;;;;;5099568;28;20050;-76
2022/12/09 07:27:04;;;;;;;6.50;4.22;;;2.70;99.90;;;;;;5080701;28;20034;-76
2022/12/09 07:29:34;;;;;;;6.38;3.92;;;2.70;99.90;;;;;;5099162;28;20024;-75
2022/12/09 07:32:00;;;;;;;5.85;3.47;;;2.60;99.90;;;;;;5098819;28;20434;-76
2022/12/09 07:34:26;;;;;;;6.90;3.70;;;2.60;99.90;;;;;;5080868;28;20032;-76
2022/12/09 07:36:52;;;;;;;6.30;4.05;;;2.60;99.90;;;;;;5098763;28;20028;-75
2022/12/09 07:39:18;;;;;;;7.15;4.10;;;2.60;99.90;;;;;;5098735;28;20039;-76
2022/12/09 07:41:44;;;;;;;8.90;3.88;;;2.60;99.90;;;;;;5098679;28;20024;-75
2022/12/09 07:44:10;;;;;;;7.10;4.00;;;2.60;99.90;;;;;;5080474;28;20038;-75
2022/12/09 07:46:37;;;;;;;6.18;3.97;;;2.70;99.90;;;;;;5098383;28;20073;-76
2022/12/09 07:49:04;;;;;;;8.30;4.65;;;2.60;99.90;;;;;;5098288;28;20111;-76
2022/12/09 07:51:31;;;;;;;6.72;4.20;;;2.70;99.90;;;;;;5098503;28;20020;-75
2022/12/09 07:53:57;;;;;;;6.35;4.05;;;2.60;99.90;;;;;;5096978;28;20023;-75
2022/12/09 07:56:23;;;;;;;8.10;4.68;;;2.60;99.90;;;;;;5079825;28;20111;-75
2022/12/09 07:58:52;;;;;;;6.38;3.85;;;2.60;99.90;;;;;;5097053;28;20044;-75
2022/12/09 08:01:23;;;;;;;6.25;3.72;;;2.60;99.90;;;;;;5080134;28;20035;-75
2022/12/09 08:03:49;;;;;;;6.35;4.10;;;2.50;99.90;;;;;;5080107;28;20377;-75
2022/12/09 08:06:18;;;;;;;6.47;4.60;;;2.50;99.90;;;;;;5098473;28;20054;-75
2022/12/09 08:08:44;;;;;;;8.18;3.78;;;2.50;99.90;;;;;;5098131;28;20496;-75
2022/12/09 08:11:16;;;;;;;7.10;4.07;;;2.60;99.90;;;;;;5080102;28;20035;-75
2022/12/09 08:13:42;;;;;;;5.68;3.75;;;2.60;99.90;;;;;;5080115;28;20031;-75
2022/12/09 08:16:09;;;;;;;6.75;3.58;;;2.60;99.90;;;;;;5079425;28;20118;-75
2022/12/09 08:18:36;;;;;;;6.72;3.75;;;2.60;99.90;;;;;;5098310;28;20102;-75
2022/12/09 08:21:11;;;;;;;5.32;3.65;;;2.60;99.90;;;;;;5079434;28;20031;-75
2022/12/09 08:23:37;;;;;;;7.10;4.20;;;2.60;99.90;;;;;;5070627;28;20460;-75
2022/12/09 08:26:04;;;;;;;5.90;3.30;;;2.60;99.90;;;;;;5093187;28;20024;-75
2022/12/09 08:28:30;;;;;;;6.63;3.85;;;2.60;99.90;;;;;;5098167;28;20055;-75
2022/12/09 08:30:57;;;;;;;6.80;4.15;;;2.60;99.90;;;;;;5097889;28;20106;-75
2022/12/09 08:33:23;;;;;;;7.43;4.28;;;2.60;99.90;;;;;;5097951;28;20101;-75
2022/12/09 08:35:48;;;;;;;8.02;3.95;;;2.60;99.90;;;;;;5097709;28;20045;-75
2022/12/09 08:38:14;;;;;;;6.07;3.78;;;2.60;99.90;;;;;;5097755;28;20023;-75
2022/12/09 08:40:40;;;;;;;6.35;3.60;;;2.60;99.90;;;;;;5097516;28;20027;-75
2022/12/09 08:43:10;;;;;;;5.90;3.60;;;2.60;99.90;;;;;;5098197;28;20028;-75
2022/12/09 08:45:37;;;;;;;6.97;4.65;;;2.60;99.90;;;;;;5097169;28;20442;-75
2022/12/09 08:48:04;;;;;;;6.55;4.20;;;2.60;99.90;;;;;;5113172;28;20036;-75
2022/12/09 08:50:30;;;;;;;6.20;3.95;;;2.70;99.90;;;;;;5079460;28;20503;-75
2022/12/09 08:52:55;;;;;;;7.70;4.20;;;2.70;99.90;;;;;;5097483;28;20028;-75
2022/12/09 08:55:21;;;;;;;7.22;3.90;;;2.70;99.90;;;;;;5079380;28;20034;-75
2022/12/09 08:57:46;;;;;;;5.80;3.72;;;2.70;99.90;;;;;;5097721;28;20388;-75
2022/12/09 09:00:13;;;;;;;7.75;4.00;;;2.80;99.90;;;;;;5097160;28;20969;-75
2022/12/09 09:02:38;;;;;;;7.28;4.13;;;2.80;99.90;;;;;;5079300;28;20038;-75
2022/12/09 09:05:04;;;;;;;7.38;3.83;;;2.80;99.90;;;;;;5097355;28;20115;-75
2022/12/09 09:07:30;;;;;;;5.90;3.90;;;2.80;99.90;;;;;;5097393;28;20059;-75
2022/12/09 09:09:56;;;;;;;5.65;3.80;;;2.80;99.90;;;;;;5079479;28;20028;-75
2022/12/09 09:12:22;;;;;;;7.47;4.18;;;2.80;99.90;;;;;;5079325;28;20024;-75
2022/12/09 09:14:47;;;;;;;7.25;3.88;;;2.80;99.90;;;;;;5079395;28;20088;-75
2022/12/09 09:17:13;;;;;;;5.72;3.63;;;2.90;99.90;;;;;;5079321;28;20020;-76
2022/12/09 09:19:39;;;;;;;6.43;4.05;;;2.80;99.90;;;;;;5097086;28;20070;-76
2022/12/09 09:22:05;;;;;;;6.85;4.13;;;2.80;99.90;;;;;;5079353;28;20032;-76
2022/12/09 09:24:30;;;;;;;5.72;3.67;;;2.80;99.90;;;;;;5079126;28;20055;-75
2022/12/09 09:26:56;;;;;;;6.53;3.67;;;2.80;99.90;;;;;;5096947;28;20020;-73
2022/12/09 09:29:22;;;;;;;6.50;3.97;;;2.80;99.90;;;;;;5077317;28;20020;-73
2022/12/09 09:31:52;;;;;;;6.60;4.28;;;2.90;99.90;;;;;;5110169;28;20019;-73
2022/12/09 09:34:19;;;;;;;6.72;3.75;;;2.90;99.90;;;;;;5085846;28;20475;-75
2022/12/09 09:36:45;;;;;;;7.05;3.97;;;3.00;99.90;;;;;;5078778;28;20020;-73
2022/12/09 09:39:11;;;;;;;6.88;4.15;;;3.00;99.90;;;;;;5107046;28;20034;-73
2022/12/09 09:41:44;;;;;;;8.23;4.45;;;3.00;99.90;;;;;;5097037;28;20024;-72
2022/12/09 09:44:27;;;;;;;5.68;3.60;;;3.00;99.90;;;;;;5078541;28;20545;-78
2022/12/09 09:46:54;;;;;;;5.25;3.60;;;3.10;99.90;;;;;;5093291;28;20039;-77
2022/12/09 09:49:29;;;;;;;6.55;4.18;;;3.00;99.90;;;;;;5096377;28;20058;-79
2022/12/09 09:51:55;;;;;;;7.05;4.05;;;3.00;99.90;;;;;;5078504;28;20032;-78
2022/12/09 09:54:21;;;;;;;5.72;3.60;;;3.10;99.90;;;;;;5077654;28;20024;-80
2022/12/09 09:56:57;;;;;;;6.60;3.70;;;3.10;99.90;;;;;;5096306;28;20077;-79
2022/12/09 09:59:32;;;;;;;8.27;4.05;;;3.10;99.90;;;;;;5081010;28;20054;-80
2022/12/09 10:02:17;;;;;;;6.03;4.30;;;3.10;99.90;;;;;;5100004;28;20020;-81
2022/12/09 10:04:45;;;;;;;7.45;4.28;;;3.10;99.90;;;;;;5082678;28;20023;-80
2022/12/09 10:07:34;;;;;;;6.10;3.72;;;3.00;99.90;;;;;;5100271;28;20031;-80
2022/12/09 10:10:04;;;;;;;6.47;4.22;;;3.10;99.90;;;;;;5102353;28;20045;-76
2022/12/09 10:12:38;;;;;;;6.43;3.83;;;3.10;99.90;;;;;;5104064;28;20016;-76
2022/12/09 10:15:19;;;;;;;7.03;4.50;;;3.10;99.90;;;;;;5101220;28;20032;-76
2022/12/09 10:18:24;;;;;;;6.95;4.30;;;3.20;99.90;;;;;;5110217;28;20032;-76
2022/12/09 10:20:51;;;;;;;7.22;4.50;;;3.20;99.90;;;;;;5095052;28;20031;-77
2022/12/09 10:23:17;;;;;;;6.18;3.85;;;3.30;99.90;;;;;;5106461;28;20024;-76
2022/12/09 10:25:58;;;;;;;6.60;3.65;;;3.30;99.90;;;;;;5107979;28;20026;-76
2022/12/09 10:28:35;;;;;;;5.65;3.70;;;3.40;99.90;;;;;;5103045;28;20063;-78
2022/12/09 10:31:02;;;;;;;7.05;4.07;;;3.40;99.90;;;;;;5112686;28;20017;-76
2022/12/09 10:33:38;;;;;;;6.40;3.88;;;3.40;99.90;;;;;;5112968;28;20032;-77
2022/12/09 10:36:06;;;;;;;7.07;3.70;;;3.50;99.90;;;;;;5103941;28;20017;-75
2022/12/09 10:38:39;;;;;;;7.00;3.90;;;3.40;99.90;;;;;;5102407;28;20492;-78
2022/12/09 10:41:05;;;;;;;;;;;3.50;99.90;;;;;;5111473;28;20024;-77
2022/12/09 10:43:37;;;;;;;7.15;3.70;;;3.50;99.90;;;;;;5092468;28;20451;-78
2022/12/09 10:46:23;;;;;;;6.03;3.80;;;3.50;99.90;;;;;;5073943;28;20022;-79
2022/12/09 10:48:56;;;;;;;6.55;3.35;;;3.60;99.90;;;;;;5111288;28;20040;-82
2022/12/09 10:51:26;;;;;;;6.20;3.55;;;3.60;99.90;;;;;;5079448;28;20111;-79
2022/12/09 10:54:10;;;;;;;6.18;3.78;;;3.70;99.90;;;;;;5085647;28;20028;-81
2022/12/09 10:57:04;;;;;;;6.90;3.90;;;3.70;99.90;;;;;;5093930;28;20043;-81
2022/12/09 10:59:30;;;;;;;5.55;3.33;;;3.80;99.90;;;;;;5101920;28;20048;-81
2022/12/09 11:02:20;;;;;;;5.03;3.25;;;3.80;99.90;;;;;;5091433;28;20032;-81
2022/12/09 11:04:46;;;;;;;5.25;3.22;;;3.90;99.90;;;;;;5089945;28;20420;-80
2022/12/09 11:07:12;;;;;;;6.00;3.47;;;3.90;99.90;;;;;;5104751;28;20019;-81
2022/12/09 11:09:41;;;;;;;5.72;3.47;;;4.00;99.90;;;;;;5103792;28;20024;-76
2022/12/09 11:12:28;;;;;;;4.45;2.90;;;4.00;99.90;;;;;;5080796;28;20545;-83
2022/12/09 11:15:02;;;;;;;5.53;3.15;;;4.00;99.90;;;;;;5097449;28;20032;-80
2022/12/09 11:17:36;;;;;;;5.50;3.05;;;4.10;99.90;;;;;;5080753;28;20024;-76
2022/12/09 11:20:04;;;;;;;5.18;3.17;;;4.10;99.90;;;;;;5081093;28;20051;-79
2022/12/09 11:22:39;;;;;;;4.20;3.00;;;4.10;99.90;;;;;;5080624;28;20028;-75
2022/12/09 11:25:26;;;;;;;4.40;2.95;;;4.20;99.90;;;;;;5099297;28;20024;-73
2022/12/09 11:28:20;;;;;;;4.30;2.88;;;4.20;99.90;;;;;;5080443;28;20500;-72
2022/12/09 11:30:58;;;;;;;5.80;2.97;;;4.20;99.90;;;;;;5080773;28;20086;-69
2022/12/09 11:33:33;;;;;;;4.93;3.00;;;4.30;99.90;;;;;;5080524;28;20055;-73
2022/12/09 11:36:01;;;;;;;5.95;3.30;;;4.30;99.90;;;;;;5080438;28;20438;-71
2022/12/09 11:38:41;;;;;;;5.00;3.45;;;4.30;99.90;;;;;;5098793;28;20085;-72
2022/12/09 11:44:26;;;;;;;4.50;2.63;;;4.40;99.90;;;;;;5098606;28;20081;-73
2022/12/09 11:47:03;;;;;;;4.40;2.72;;;4.40;99.90;;;;;;5080072;28;20024;-72
2022/12/09 11:49:33;;;;;;;3.60;2.40;;;4.40;99.90;;;;;;5098768;28;20059;-73
2022/12/09 11:52:04;;;;;;;3.38;2.50;;;4.50;99.90;;;;;;5079738;28;20024;-74
2022/12/09 11:54:47;;;;;;;3.92;2.45;;;4.50;99.90;;;;;;5080418;28;20077;-74
2022/12/09 11:57:40;;;;;;;4.67;2.53;;;4.50;99.90;;;;;;5098371;28;20028;-74
2022/12/09 12:00:20;;;;;;;3.85;2.33;;;4.50;99.90;;;;;;5057883;28;20313;-73
2022/12/09 12:02:59;;;;;;;3.38;2.25;;;4.50;99.90;;;;;;5056669;28;20021;-72
2022/12/09 12:05:34;;;;;;;3.28;2.08;;;4.50;99.90;;;;;;5056621;28;20018;-73
2022/12/09 12:08:05;;;;;;;4.57;2.53;;;4.60;99.90;;;;;;5057551;28;20486;-73
2022/12/09 12:10:40;;;;;;;4.32;2.40;;;4.60;99.90;;;;;;5058585;28;20465;-73
2022/12/09 12:13:36;;;;;;;4.15;2.53;;;4.60;99.90;;;;;;5056378;28;20025;-73
2022/12/09 12:16:33;;;;;;;3.47;2.20;;;4.60;99.90;;;;;;5056568;28;20029;-76
2022/12/09 12:19:08;;;;;;;4.38;2.40;;;4.70;99.90;;;;;;5057791;28;20025;-73
2022/12/09 12:22:00;;;;;;;4.00;2.38;;;4.80;99.90;;;;;;5056902;28;20033;-75
2022/12/09 12:24:46;;;;;;;3.85;2.33;;;4.80;99.90;;;;;;5057797;28;20037;-75
2022/12/09 12:27:45;;;;;;;4.20;2.78;;;4.80;99.90;;;;;;5056271;28;20024;-74
2022/12/09 12:30:13;;;;;;;4.18;2.55;;;4.80;99.90;;;;;;5056316;28;20075;-73
2022/12/09 12:32:53;;;;;;;4.80;3.05;;;4.80;99.90;;;;;;5057114;28;20025;-77
2022/12/09 12:35:53;;;;;;;3.60;2.67;;;4.90;99.90;;;;;;5055630;28;20558;-77
2022/12/09 12:38:33;;;;;;;4.63;3.22;;;4.90;99.90;;;;;;5052807;28;20043;-79
2022/12/09 12:41:17;;;;;;;6.90;3.63;;;4.90;99.90;;;;;;5056779;28;20543;-77
2022/12/09 12:46:36;;;;;;;4.57;2.85;;;4.80;99.90;;;;;;5051736;28;20155;-77
2022/12/09 12:49:23;;;;;;;4.15;2.67;;;4.80;99.90;;;;;;5054677;28;20488;-76
2022/12/09 12:52:36;;;;;;;4.57;3.33;;;4.80;99.90;;;;;;5083308;28;20033;-76
2022/12/09 12:55:07;;;;;;;5.35;3.75;;;4.80;99.90;;;;;;5055180;28;20029;-76
2022/12/09 12:57:43;;;;;;;5.22;3.15;;;4.80;99.90;;;;;;5055805;28;20032;-75
2022/12/09 13:00:19;;;;;;;4.38;3.20;;;4.80;99.90;;;;;;5095024;28;20048;-75
2022/12/09 13:03:05;;;;;;;5.95;3.75;;;4.90;99.90;;;;;;5078645;28;20024;-75
2022/12/09 13:05:41;;;;;;;6.07;3.60;;;4.80;99.90;;;;;;5097067;28;20082;-75
2022/12/09 13:08:35;;;;;;;5.97;3.78;;;4.80;99.90;;;;;;5096737;28;20051;-77
2022/12/09 13:11:11;;;;;;;5.72;3.42;;;4.80;99.90;;;;;;5078860;28;20062;-78
2022/12/09 13:14:00;;;;;;;6.53;3.63;;;4.90;99.90;;;;;;5096852;28;20399;-79
2022/12/09 13:16:38;;;;;;;4.88;3.63;;;4.90;99.90;;;;;;5096397;28;20527;-75
2022/12/09 13:19:23;;;;;;;5.40;3.28;;;4.80;99.90;;;;;;5096614;28;20067;-75
2022/12/09 13:21:50;;;;;;;7.82;3.55;;;4.90;99.90;;;;;;5079164;28;20391;-76